Tuesday, February 09, 2016
22:42 UTC
  |  Log In   |  Register Free
Airport Search:

Hillsboro Municipal Airport
(KINJ)

Hillsboro Municipal Airport Diagram
No Airport Diagram Available

FAA data valid effective Dec 10 2015 - Feb 4 2016 (unless otherwise noted).

 
 
 
 
 
 
 
 
 
 
 
 
 
 
Current Aviation Weather for KINJ

Weather Summary


The most recent METAR observation for INJ was updated at: 12:55 UTC
METAR for KINJ is not available. Closest METAR is for KCPT
KINJ  (most recent observation was updatred at 92:21 UTC)
092215Z AUTO 34012G18KT 10SM CLR 18/M02 A3022 RMK AO2 T01821017

KCPT  (23.6 nm SE)   (most recent observation was updated at 92:21 UTC)
092215Z AUTO 33015G20KT 10SM CLR 18/M01 A3023 RMK AO2 TSNO

KJWY  (24.4 nm SW)   (most recent observation was updated at 92:21 UTC)
092215Z AUTO 33017G20KT 10SM CLR 17/00 A3023 RMK AO2 T01731001

TAF for KINJ is not available.
KACT  (29.1 nm NE)   (most recent observation was updatred at 92:05 UTC)
AMD 092052Z 0921/1018 31015G20KT P6SM SKC FM100100 01006KT P6SM SKC FM100300 VRB04KT P6SM SKC FM101700 20008KT P6SM SKC


KGKY  (34.8 nm SW)   (most recent observation was updatred at 92:05 UTC)
AMD 092052Z 0921/1018 31010G16KT P6SM SKC FM100100 35008KT P6SM SKC FM100300 VRB05KT P6SM SKC FM101600 20008KT P6SM SKC


GlobalAir.com is loading additional information.
 Current Weather at INJ
65.0 F° (18.5 C°)

Northwest winds at 15.0 mph
Pressure:
30.21 in
Humidity:
26%
Wind:
Northwest at 15.0 mph
Dew Point:
28.9 F° (-1.7 C°)
Visibility:
10.00 mi
INJ NOAA Radar




Find All Airport Services Find A Hotel Find A Rental Car Find A Golf Course Find A Restaurant $100 Hamburger



Airport Weather Forecast for KINJ

Translated METAR for KINJ (2215 UTC)
METAR:
KINJ 092215Z AUTO 34012G18KT 10SM CLR 18/M02 A3022 RMK AO2 T01821017
Conditions at:
KINJ (Hillsboro Muni, TX) observed 2215 UTC 09 February 2016
Temperature:
18°C (64.4°F)
Dewpoint:
-2°C (28.4°F) [RH = 25.6]
Pressure:
30.22 inches Hg (1023.4 mb)
Winds:
from the NNW (340 degrees) at 13.8 mph (12 knots: 6.2 m/s)
gusting to 20.7 mph (18 knots: 9.3 m/s)
Visibility:
10 mile(s)
Ceiling:
at least 12,000 feet AGL
Clouds:
Clear below 12,000 feet AGL
Remarks:
site is un-manned
site is automated and HAS a precipitation sensor

Translated TAF for KACT (Waco Rgnl, TX) (2052 UTC)
TAF text:
KACT 092052Z 0921/1018 31015G20KT P6SM SKC
Forecast period:
Tuesday Feb 09 2016 21:00 UTC - Wednesday Feb 10 2016 18:00 UTC
Forecast type:
FROM: standard forecast or significant change
Winds:
from the NW (310 degrees) at 17.3 mph (15 knots: 7.7 m/s)
gusting to 23 mph (20 knots: 10.3 m/s)
Visibility:
6 or more mile(s) (9.7+ km)
Ceiling:
at least 12,000 feet AGL
Clouds:
Clear Skies
Weather:
no significant weather observed at this time
TAF text:
FM100100 01006KT P6SM SKC
Forecast period:
Wednesday Feb 10 2016 01:00 UTC - Wednesday Feb 10 2016 03:00 UTC
Forecast type:
FROM: standard forecast or significant change
Winds:
from the N (010 degrees) at 6.9 mph (6 knots: 3.1 m/s)
Visibility:
6 or more mile(s) (9.7+ km)
Ceiling:
at least 12,000 feet AGL
Clouds:
Clear Skies
Weather:
no significant weather observed at this time
TAF text:
FM100300 VRB04KT P6SM SKC
Forecast period:
Wednesday Feb 10 2016 03:00 UTC - Wednesday Feb 10 2016 17:00 UTC
Forecast type:
FROM: standard forecast or significant change
Winds:
variable wind direction at 4.6 mph (4 knots: 2.1 m/s)
Visibility:
6 or more mile(s) (9.7+ km)
Ceiling:
at least 12,000 feet AGL
Clouds:
Clear Skies
Weather:
no significant weather observed at this time
TAF text:
FM101700 20008KT P6SM SKC
Forecast period:
Wednesday Feb 10 2016 17:00 UTC - Wednesday Feb 10 2016 18:00 UTC
Forecast type:
FROM: standard forecast or significant change
Winds:
from the SSW (200 degrees) at 9.2 mph (8 knots: 4.1 m/s)
Visibility:
6 or more mile(s) (9.7+ km)
Ceiling:
at least 12,000 feet AGL
Clouds:
Clear Skies
Weather:
no significant weather observed at this time
FBO's on the Field
FBO Company Facility Photos Services Transportation Aviation Fuel Prices: Prices include tax
Catering Weather Repair Courtesy Rental Type 100LL JetA JetA+ MOGAS 8087
 
Hillsboro Municipal Airport

This FBO has not yet been rated
FS:Avfuel
Last Updated: Feb-09
Login to update fuel prices
SS:
Contact Hillsboro Municipal AirportMore FBO Information
 
Add another FBO Facility Photos Catering Weather Repair Courtesy Rental Type 100LL JetA JetA+ MOGAS 8087
Services Transportation Aviation Fuel Prices: Prices include tax


model-print
model-print
model-print
model-print